createdAt,value
2022-10-10T00:01:53.288Z,103107.09
2022-10-10T00:05:17.204Z,103101.81
2022-10-10T00:08:41.283Z,103102.03
2022-10-10T00:12:05.184Z,103097.56
2022-10-10T00:15:29.231Z,103088.69
2022-10-10T00:18:54.197Z,103082.75
2022-10-10T00:22:11.304Z,103083.78
2022-10-10T00:25:38.127Z,103078.81
2022-10-10T00:29:03.207Z,103060.06
2022-10-10T00:32:27.245Z,103071.81
2022-10-10T00:35:51.212Z,103061.66
2022-10-10T00:39:15.298Z,103050.63
2022-10-10T00:42:32.805Z,103045.13
2022-10-10T00:45:53.230Z,103049.97
2022-10-10T00:49:18.317Z,103042.06
2022-10-10T00:52:42.341Z,103051.84
2022-10-10T00:56:06.312Z,103050.09
2022-10-10T00:59:30.249Z,103036.00
2022-10-10T01:02:54.298Z,103037.47
2022-10-10T01:06:18.327Z,103033.09
2022-10-10T01:09:44.356Z,103038.69
2022-10-10T01:13:14.333Z,103026.56
2022-10-10T01:16:59.214Z,103033.28
2022-10-10T01:20:50.407Z,103013.44
2022-10-10T01:24:14.229Z,103021.72
2022-10-10T01:27:53.256Z,103017.88
2022-10-10T01:31:18.228Z,102997.97
2022-10-10T01:35:17.252Z,102992.47
2022-10-10T01:39:10.388Z,102993.47
2022-10-10T01:43:12.798Z,102971.31
2022-10-10T01:46:30.305Z,102977.66
2022-10-10T01:49:58.333Z,102972.13
2022-10-10T01:53:31.376Z,102956.25
2022-10-10T01:57:27.267Z,102961.16
2022-10-10T02:01:20.300Z,102944.53
2022-10-10T02:04:49.279Z,102936.66
2022-10-10T02:08:17.240Z,102928.81
2022-10-10T02:11:44.429Z,102917.91
2022-10-10T02:15:11.239Z,102928.91
2022-10-10T02:18:38.339Z,102916.13
2022-10-10T02:22:04.256Z,102909.75
2022-10-10T02:25:28.281Z,102882.56
2022-10-10T02:29:08.291Z,102899.78
2022-10-10T02:32:42.306Z,102901.19
2022-10-10T02:36:06.302Z,102889.00
2022-10-10T02:39:32.246Z,102897.41
2022-10-10T02:42:56.304Z,102881.03
2022-10-10T02:46:17.232Z,102871.34
2022-10-10T02:49:41.369Z,102866.69
2022-10-10T02:53:05.249Z,102862.34
2022-10-10T02:56:29.299Z,102853.41
2022-10-10T02:59:53.333Z,102853.38
2022-10-10T03:03:17.287Z,102851.63
2022-10-10T03:06:41.409Z,102857.69
2022-10-10T03:10:05.358Z,102851.84
2022-10-10T03:13:29.300Z,102860.19
2022-10-10T03:16:54.280Z,102838.44
2022-10-10T03:20:18.294Z,102845.78
2022-10-10T03:23:43.326Z,102839.50
2022-10-10T03:27:08.371Z,102845.44
2022-10-10T03:30:32.386Z,102846.66
2022-10-10T03:33:56.339Z,102826.84
2022-10-10T03:37:21.290Z,102825.28
2022-10-10T03:40:46.370Z,102826.03
2022-10-10T03:44:11.319Z,102819.59
2022-10-10T03:47:28.878Z,102813.59
2022-10-10T03:50:47.321Z,102811.94
2022-10-10T03:54:11.400Z,102804.19
2022-10-10T03:57:28.330Z,102802.94
2022-10-10T04:00:52.327Z,102796.97
2022-10-10T04:04:16.447Z,102807.22
2022-10-10T04:07:41.313Z,102800.09
2022-10-10T04:11:08.344Z,102791.63
2022-10-10T04:14:32.336Z,102805.06
2022-10-10T04:17:57.101Z,102784.78
2022-10-10T04:21:21.341Z,102795.50
2022-10-10T04:24:45.329Z,102785.88
2022-10-10T04:28:09.448Z,102776.94
2022-10-10T04:31:33.299Z,102777.38
2022-10-10T04:34:57.375Z,102774.06
2022-10-10T04:38:21.391Z,102766.75
2022-10-10T04:41:44.470Z,102754.66
2022-10-10T04:45:08.294Z,102745.25
2022-10-10T04:48:32.392Z,102741.91
2022-10-10T04:51:56.337Z,102739.72
2022-10-10T04:55:21.308Z,102725.84
2022-10-10T04:58:45.332Z,102718.75
2022-10-10T05:02:09.351Z,102731.03
2022-10-10T05:05:33.372Z,102722.84
2022-10-10T05:08:58.316Z,102723.88
2022-10-10T05:12:22.417Z,102724.09
2022-10-10T05:15:46.270Z,102729.06
2022-10-10T05:19:10.351Z,102724.75
2022-10-10T05:22:35.280Z,102734.53
2022-10-10T05:26:08.373Z,102750.06
2022-10-10T05:29:32.326Z,102761.38
2022-10-10T05:32:56.331Z,102747.34
2022-10-10T05:36:24.331Z,102754.13
2022-10-10T05:39:52.351Z,102747.94
2022-10-10T05:43:19.284Z,102750.69
2022-10-10T05:46:44.323Z,102749.56
2022-10-10T05:50:08.273Z,102756.88
2022-10-10T05:53:31.330Z,102750.75
2022-10-10T05:56:55.329Z,102750.34
2022-10-10T06:00:19.329Z,102752.31
2022-10-10T06:03:43.298Z,102750.13
2022-10-10T06:07:08.352Z,102754.97
2022-10-10T06:10:32.309Z,102757.16
2022-10-10T06:13:59.410Z,102754.69
2022-10-10T06:17:23.364Z,102758.78
2022-10-10T06:20:50.349Z,102759.16
2022-10-10T06:24:14.370Z,102749.28
2022-10-10T06:27:38.324Z,102755.00
2022-10-10T06:31:01.323Z,102746.56
2022-10-10T06:34:25.386Z,102747.88
2022-10-10T06:37:49.377Z,102752.03
2022-10-10T06:41:17.336Z,102755.91
2022-10-10T06:44:40.364Z,102742.19
2022-10-10T06:48:04.381Z,102757.19
2022-10-10T06:51:30.388Z,102762.78
2022-10-10T06:54:55.398Z,102771.50
2022-10-10T06:58:19.392Z,102758.84
2022-10-10T07:01:43.377Z,102758.47
2022-10-10T07:05:07.386Z,102763.09
2022-10-10T07:08:31.323Z,102757.28
2022-10-10T07:11:56.399Z,102756.22
2022-10-10T07:15:24.388Z,102762.78
2022-10-10T07:18:48.423Z,102753.84
2022-10-10T07:22:13.397Z,102751.53
2022-10-10T07:25:37.404Z,102747.41
2022-10-10T07:29:01.339Z,102752.38
2022-10-10T07:32:26.370Z,102754.03
2022-10-10T07:35:50.397Z,102758.91
2022-10-10T07:39:07.416Z,102767.06
2022-10-10T07:42:30.379Z,102749.63
2022-10-10T07:45:54.395Z,102760.47
2022-10-10T07:49:18.382Z,102755.25
2022-10-10T07:52:43.434Z,102760.28
2022-10-10T07:56:07.357Z,102762.56
2022-10-10T07:59:31.377Z,102760.91
2022-10-10T08:02:55.361Z,102759.88
2022-10-10T08:06:24.389Z,102770.50
2022-10-10T08:09:48.423Z,102771.75
2022-10-10T08:13:14.413Z,102779.66
2022-10-10T08:16:38.427Z,102764.44
2022-10-10T08:20:02.512Z,102775.91
2022-10-10T08:23:26.504Z,102782.78
2022-10-10T08:26:50.390Z,102785.06
2022-10-10T08:30:14.403Z,102787.16
2022-10-10T08:33:41.379Z,102789.69
2022-10-10T08:37:06.427Z,102785.91
2022-10-10T08:40:36.372Z,102789.25
2022-10-10T08:44:04.421Z,102794.22
2022-10-10T08:47:37.387Z,102773.59
2022-10-10T08:51:10.397Z,102803.16
2022-10-10T08:54:36.382Z,102790.03
2022-10-10T08:58:27.437Z,102797.72
2022-10-10T09:02:18.150Z,102786.47
2022-10-10T09:06:12.455Z,102796.44
2022-10-10T09:10:03.418Z,102798.09
2022-10-10T09:13:50.413Z,102797.88
2022-10-10T09:17:24.520Z,102799.06
2022-10-10T09:21:16.470Z,102795.31
2022-10-10T09:24:52.359Z,102783.06
2022-10-10T09:28:23.503Z,102789.84
2022-10-10T09:31:59.371Z,102794.63
2022-10-10T09:35:43.458Z,102774.06
2022-10-10T09:39:08.432Z,102775.28
2022-10-10T09:42:36.463Z,102778.19
2022-10-10T09:46:07.435Z,102767.38
2022-10-10T09:49:33.451Z,102770.47
2022-10-10T09:52:57.478Z,102757.38
2022-10-10T09:56:21.424Z,102758.03
2022-10-10T10:00:03.676Z,102754.50
2022-10-10T10:03:35.410Z,102751.97
2022-10-10T10:07:05.404Z,102752.81
2022-10-10T10:10:38.448Z,102753.81
2022-10-10T10:14:12.377Z,102754.03
2022-10-10T10:17:38.451Z,102740.31
2022-10-10T10:21:08.438Z,102729.94
2022-10-10T10:24:37.494Z,102724.50
2022-10-10T10:28:01.472Z,102728.66
2022-10-10T10:31:44.548Z,102736.00
2022-10-10T10:35:19.448Z,102739.50
2022-10-10T10:38:52.487Z,102729.94
2022-10-10T10:42:44.436Z,102725.13
2022-10-10T10:47:03.446Z,102725.34
2022-10-10T10:50:49.445Z,102716.66
2022-10-10T10:54:41.148Z,102716.63
2022-10-10T11:02:43.618Z,102703.94
2022-10-10T11:06:11.776Z,102700.84
2022-10-10T11:09:49.559Z,102690.00
2022-10-10T11:13:38.496Z,102695.06
2022-10-10T11:17:28.456Z,102688.00
2022-10-10T11:20:56.514Z,102681.56
2022-10-10T11:24:25.471Z,102672.81
2022-10-10T11:28:03.449Z,102658.00
2022-10-10T11:31:37.453Z,102649.91
2022-10-10T11:35:08.409Z,102645.34
2022-10-10T11:38:46.495Z,102643.69
2022-10-10T11:42:21.469Z,102651.31
2022-10-10T11:45:54.450Z,102661.72
2022-10-10T11:49:32.482Z,102651.13
2022-10-10T11:53:11.500Z,102648.03
2022-10-10T11:56:49.478Z,102633.69
2022-10-10T12:00:26.508Z,102619.75
2022-10-10T12:03:50.475Z,102620.72
2022-10-10T12:07:47.496Z,102629.31
2022-10-10T12:11:20.488Z,102628.09
2022-10-10T12:14:43.487Z,102620.56
2022-10-10T12:18:07.443Z,102620.94
2022-10-10T12:21:34.552Z,102611.78
2022-10-10T12:25:21.454Z,102602.66
2022-10-10T12:28:50.547Z,102617.56
2022-10-10T12:32:29.487Z,102616.16
2022-10-10T12:35:56.515Z,102618.22
2022-10-10T12:39:20.534Z,102614.91
2022-10-10T12:42:53.478Z,102612.22
2022-10-10T12:46:31.472Z,102605.75
2022-10-10T12:50:07.599Z,102598.06
2022-10-10T12:53:35.424Z,102594.31
2022-10-10T12:57:00.520Z,102596.59
2022-10-10T13:00:41.480Z,102594.94
2022-10-10T13:04:05.471Z,102589.53
2022-10-10T13:07:34.498Z,102586.03
2022-10-10T13:10:58.507Z,102591.41
2022-10-10T13:14:23.488Z,102581.22
2022-10-10T13:17:52.470Z,102584.06
2022-10-10T13:21:18.503Z,102574.53
2022-10-10T13:24:48.488Z,102574.50
2022-10-10T13:28:13.543Z,102576.81
2022-10-10T13:31:37.453Z,102573.69
2022-10-10T13:35:08.553Z,102576.81
2022-10-10T13:38:41.438Z,102570.72
2022-10-10T13:42:06.543Z,102566.81
2022-10-10T13:45:39.480Z,102567.63
2022-10-10T13:49:03.538Z,102566.78
2022-10-10T13:52:38.529Z,102553.06
2022-10-10T13:56:02.506Z,102550.97
2022-10-10T13:59:28.487Z,102545.59
2022-10-10T14:02:53.533Z,102546.72
2022-10-10T14:06:18.554Z,102548.25
2022-10-10T14:09:53.556Z,102549.69
2022-10-10T14:13:17.486Z,102556.78
2022-10-10T14:16:41.668Z,102564.44
2022-10-10T14:20:05.483Z,102559.63
2022-10-10T14:23:30.493Z,102540.03
2022-10-10T14:26:54.487Z,102530.59
2022-10-10T14:30:18.544Z,102525.78
2022-10-10T14:33:42.520Z,102527.81
2022-10-10T14:37:06.559Z,102517.38
2022-10-10T14:40:38.522Z,102529.25
2022-10-10T14:44:02.505Z,102526.31
2022-10-10T14:47:37.540Z,102521.31
2022-10-10T14:51:34.205Z,102529.50
2022-10-10T14:54:46.613Z,102532.28
2022-10-10T14:58:10.506Z,102536.03
2022-10-10T15:01:34.570Z,102533.47
2022-10-10T15:04:59.570Z,102541.00
2022-10-10T15:08:23.491Z,102526.59
2022-10-10T15:11:47.544Z,102534.03
2022-10-10T15:15:11.537Z,102537.19
2022-10-10T15:18:59.433Z,102540.47
2022-10-10T15:22:20.537Z,102536.66
2022-10-10T15:25:44.546Z,102533.00
2022-10-10T15:29:09.685Z,102513.94
2022-10-10T15:32:33.501Z,102511.88
2022-10-10T15:36:09.047Z,102521.84
2022-10-10T15:39:33.530Z,102531.22
2022-10-10T15:42:58.529Z,102526.59
2022-10-10T15:46:24.570Z,102531.53
2022-10-10T15:49:48.565Z,102528.09
2022-10-10T15:53:05.588Z,102528.53
2022-10-10T15:56:30.567Z,102514.56
2022-10-10T15:59:54.548Z,102508.81
2022-10-10T16:03:18.563Z,102523.56
2022-10-10T16:06:46.762Z,102528.00
2022-10-10T16:10:17.566Z,102512.78
2022-10-10T16:13:43.537Z,102520.09
2022-10-10T16:17:07.571Z,102515.31
2022-10-10T16:20:31.542Z,102517.44
2022-10-10T16:23:58.059Z,102509.53
2022-10-10T16:27:27.015Z,102506.66
2022-10-10T16:30:51.588Z,102505.63
2022-10-10T16:34:15.522Z,102511.16
2022-10-10T16:37:39.595Z,102512.94
2022-10-10T16:41:04.028Z,102502.22
2022-10-10T16:44:27.646Z,102512.13
2022-10-10T16:47:51.517Z,102510.78
2022-10-10T16:51:27.628Z,102498.84
2022-10-10T16:54:52.488Z,102494.81
2022-10-10T16:58:17.559Z,102492.50
2022-10-10T17:01:41.660Z,102490.69
2022-10-10T17:05:05.583Z,102486.75
2022-10-10T17:08:29.588Z,102477.66
2022-10-10T17:11:54.554Z,102473.41
2022-10-10T17:15:18.572Z,102482.44
2022-10-10T17:18:42.562Z,102482.78
2022-10-10T17:22:07.637Z,102483.56
2022-10-10T17:25:32.587Z,102480.84
2022-10-10T17:28:56.557Z,102488.41
2022-10-10T17:32:20.569Z,102486.41
2022-10-10T17:35:45.570Z,102500.66
2022-10-10T17:39:09.588Z,102496.44
2022-10-10T17:42:33.675Z,102497.69
2022-10-10T17:46:09.758Z,102497.22
2022-10-10T17:49:42.569Z,102495.09
2022-10-10T17:53:06.613Z,102494.81
2022-10-10T17:56:33.565Z,102489.09
2022-10-10T17:59:57.597Z,102493.75
2022-10-10T18:03:21.590Z,102495.31
2022-10-10T18:06:46.564Z,102487.63
2022-10-10T18:10:10.594Z,102481.22
2022-10-10T18:13:35.588Z,102467.66
2022-10-10T18:16:59.595Z,102473.06
2022-10-10T18:20:25.741Z,102468.00
2022-10-10T18:23:50.630Z,102452.41
2022-10-10T18:27:14.674Z,102448.13
2022-10-10T18:30:38.640Z,102451.44
2022-10-10T18:34:03.581Z,102466.75
2022-10-10T18:37:28.588Z,102460.72
2022-10-10T18:40:52.618Z,102469.66
2022-10-10T18:44:21.612Z,102475.31
2022-10-10T18:47:45.615Z,102463.13
2022-10-10T18:51:15.595Z,102457.56
2022-10-10T18:54:40.670Z,102460.19
2022-10-10T18:58:05.615Z,102455.25
2022-10-10T19:01:31.694Z,102458.53
2022-10-10T19:04:56.572Z,102447.34
2022-10-10T19:08:21.798Z,102446.75
2022-10-10T19:11:48.595Z,102443.31
2022-10-10T19:15:12.630Z,102439.63
2022-10-10T19:18:36.617Z,102428.34
2022-10-10T19:22:01.658Z,102429.66
2022-10-10T19:25:26.612Z,102432.13
2022-10-10T19:28:57.624Z,102441.00
2022-10-10T19:32:21.606Z,102427.97
2022-10-10T19:35:52.095Z,102430.34
2022-10-10T19:39:17.649Z,102425.41
2022-10-10T19:42:41.625Z,102417.72
2022-10-10T19:46:06.119Z,102415.88
2022-10-10T19:49:30.634Z,102422.34
2022-10-10T19:52:54.629Z,102421.94
2022-10-10T19:56:15.239Z,102423.50
2022-10-10T19:59:32.640Z,102419.22
2022-10-10T20:02:56.628Z,102416.59
2022-10-10T20:06:21.682Z,102417.41
2022-10-10T20:09:45.656Z,102405.13
2022-10-10T20:13:09.819Z,102400.66
2022-10-10T20:16:34.634Z,102399.38
2022-10-10T20:19:58.679Z,102403.16
2022-10-10T20:23:22.671Z,102414.13
2022-10-10T20:26:46.645Z,102418.78
2022-10-10T20:30:10.637Z,102407.94
2022-10-10T20:33:35.686Z,102414.63
2022-10-10T20:37:00.669Z,102401.00
2022-10-10T20:40:24.649Z,102415.47
2022-10-10T20:43:49.677Z,102403.50
2022-10-10T20:47:14.688Z,102408.00
2022-10-10T20:50:38.644Z,102395.69
2022-10-10T20:54:07.716Z,102398.72
2022-10-10T20:57:25.256Z,102403.94
2022-10-10T21:00:45.688Z,102403.88
2022-10-10T21:04:09.684Z,102390.28
2022-10-10T21:07:33.683Z,102396.78
2022-10-10T21:10:57.681Z,102396.13
2022-10-10T21:14:21.701Z,102392.00
2022-10-10T21:17:45.654Z,102397.19
2022-10-10T21:21:20.677Z,102395.50
2022-10-10T21:24:45.644Z,102382.13
2022-10-10T21:28:09.691Z,102388.69
2022-10-10T21:31:36.677Z,102377.16
2022-10-10T21:35:00.706Z,102380.13
2022-10-10T21:38:24.656Z,102374.19
2022-10-10T21:41:48.681Z,102360.41
2022-10-10T21:45:12.732Z,102358.53
2022-10-10T21:48:36.701Z,102350.56
2022-10-10T21:52:01.663Z,102349.66
2022-10-10T21:55:24.698Z,102346.88
2022-10-10T21:58:48.881Z,102356.31
2022-10-10T22:02:05.722Z,102353.34
2022-10-10T22:05:29.682Z,102356.97
2022-10-10T22:08:54.708Z,102358.31
2022-10-10T22:12:18.671Z,102360.50
2022-10-10T22:15:34.702Z,102351.16
2022-10-10T22:18:58.741Z,102355.09
2022-10-10T22:22:22.782Z,102350.91
2022-10-10T22:25:46.718Z,102349.75
2022-10-10T22:29:10.702Z,102356.16
2022-10-10T22:32:34.699Z,102356.81
2022-10-10T22:35:57.736Z,102358.28
2022-10-10T22:39:22.683Z,102360.69
2022-10-10T22:42:46.721Z,102359.00
2022-10-10T22:46:10.714Z,102344.81
2022-10-10T22:49:34.728Z,102344.59
2022-10-10T22:52:58.723Z,102345.56
2022-10-10T22:56:24.743Z,102336.13
2022-10-10T22:59:41.343Z,102326.56
2022-10-10T23:02:59.753Z,102333.13
2022-10-10T23:06:23.733Z,102336.97
2022-10-10T23:09:47.732Z,102334.31
2022-10-10T23:13:12.704Z,102336.69
2022-10-10T23:16:40.548Z,102335.34
2022-10-10T23:20:04.709Z,102334.41
2022-10-10T23:23:22.717Z,102321.53
2022-10-10T23:26:46.743Z,102324.31
2022-10-10T23:30:10.691Z,102331.03
2022-10-10T23:33:36.931Z,102331.19
2022-10-10T23:37:01.716Z,102326.50
2022-10-10T23:40:24.762Z,102314.94
2022-10-10T23:43:48.742Z,102317.66
2022-10-10T23:47:11.776Z,102304.22
2022-10-10T23:50:35.853Z,102291.47
2022-10-10T23:53:59.730Z,102286.47
2022-10-10T23:57:24.751Z,102263.28
